sensor_id;sensor_type;location;lat;lon;timestamp;pressure;altitude;pressure_sealevel;temperature
11424;BMP180;5768;51.476;7.210;2023-12-20T00:02:32;100066.00;;;11.10
11424;BMP180;5768;51.476;7.210;2023-12-20T00:07:35;100069.00;;;11.10
11424;BMP180;5768;51.476;7.210;2023-12-20T00:12:39;100078.00;;;11.10
11424;BMP180;5768;51.476;7.210;2023-12-20T00:17:41;100077.00;;;11.10
11424;BMP180;5768;51.476;7.210;2023-12-20T00:22:44;100074.00;;;11.10
11424;BMP180;5768;51.476;7.210;2023-12-20T00:27:47;100068.00;;;11.10
11424;BMP180;5768;51.476;7.210;2023-12-20T00:32:49;100083.00;;;11.10
11424;BMP180;5768;51.476;7.210;2023-12-20T00:37:51;100103.00;;;11.00
11424;BMP180;5768;51.476;7.210;2023-12-20T00:42:55;100084.00;;;11.00
11424;BMP180;5768;51.476;7.210;2023-12-20T00:47:57;100099.00;;;10.90
11424;BMP180;5768;51.476;7.210;2023-12-20T00:53:00;100108.00;;;10.90
11424;BMP180;5768;51.476;7.210;2023-12-20T00:58:03;100118.00;;;10.80
11424;BMP180;5768;51.476;7.210;2023-12-20T01:03:06;100109.00;;;10.70
11424;BMP180;5768;51.476;7.210;2023-12-20T01:08:08;100108.00;;;10.70
11424;BMP180;5768;51.476;7.210;2023-12-20T01:13:12;100106.00;;;10.70
11424;BMP180;5768;51.476;7.210;2023-12-20T01:18:17;100110.00;;;10.70
11424;BMP180;5768;51.476;7.210;2023-12-20T01:23:19;100112.00;;;10.70
11424;BMP180;5768;51.476;7.210;2023-12-20T01:28:23;100115.00;;;10.70
11424;BMP180;5768;51.476;7.210;2023-12-20T01:33:25;100116.00;;;10.70
11424;BMP180;5768;51.476;7.210;2023-12-20T01:38:27;100113.00;;;10.60
11424;BMP180;5768;51.476;7.210;2023-12-20T01:43:31;100137.00;;;10.50
11424;BMP180;5768;51.476;7.210;2023-12-20T01:48:33;100127.00;;;10.40
11424;BMP180;5768;51.476;7.210;2023-12-20T01:53:36;100134.00;;;10.40
11424;BMP180;5768;51.476;7.210;2023-12-20T01:58:45;100124.00;;;10.30
11424;BMP180;5768;51.476;7.210;2023-12-20T02:03:48;100127.00;;;10.30
11424;BMP180;5768;51.476;7.210;2023-12-20T02:08:51;100123.00;;;10.10
11424;BMP180;5768;51.476;7.210;2023-12-20T02:13:55;100132.00;;;9.90
11424;BMP180;5768;51.476;7.210;2023-12-20T02:18:57;100121.00;;;9.80
11424;BMP180;5768;51.476;7.210;2023-12-20T02:24:01;100112.00;;;9.60
11424;BMP180;5768;51.476;7.210;2023-12-20T02:29:04;100115.00;;;9.70
11424;BMP180;5768;51.476;7.210;2023-12-20T02:34:06;100123.00;;;9.90
11424;BMP180;5768;51.476;7.210;2023-12-20T02:39:09;100117.00;;;10.00
11424;BMP180;5768;51.476;7.210;2023-12-20T02:44:12;100125.00;;;10.10
11424;BMP180;5768;51.476;7.210;2023-12-20T02:49:14;100115.00;;;10.20
11424;BMP180;5768;51.476;7.210;2023-12-20T02:54:18;100118.00;;;10.20
11424;BMP180;5768;51.476;7.210;2023-12-20T02:59:20;100141.00;;;10.20
11424;BMP180;5768;51.476;7.210;2023-12-20T03:04:22;100125.00;;;10.20
11424;BMP180;5768;51.476;7.210;2023-12-20T03:09:26;100141.00;;;10.20
11424;BMP180;5768;51.476;7.210;2023-12-20T03:14:29;100123.00;;;10.20
11424;BMP180;5768;51.476;7.210;2023-12-20T03:19:31;100126.00;;;10.20
11424;BMP180;5768;51.476;7.210;2023-12-20T03:24:35;100112.00;;;10.20
11424;BMP180;5768;51.476;7.210;2023-12-20T03:29:37;100122.00;;;10.10
11424;BMP180;5768;51.476;7.210;2023-12-20T03:34:39;100124.00;;;10.00
11424;BMP180;5768;51.476;7.210;2023-12-20T03:39:43;100114.00;;;9.90
11424;BMP180;5768;51.476;7.210;2023-12-20T03:44:47;100115.00;;;9.80
11424;BMP180;5768;51.476;7.210;2023-12-20T03:49:49;100100.00;;;9.60
11424;BMP180;5768;51.476;7.210;2023-12-20T03:54:53;100112.00;;;9.50
11424;BMP180;5768;51.476;7.210;2023-12-20T03:59:59;100117.00;;;9.40
11424;BMP180;5768;51.476;7.210;2023-12-20T04:05:02;100114.00;;;9.40
11424;BMP180;5768;51.476;7.210;2023-12-20T04:10:08;100102.00;;;9.40
11424;BMP180;5768;51.476;7.210;2023-12-20T04:15:10;100098.00;;;9.40
11424;BMP180;5768;51.476;7.210;2023-12-20T04:20:12;100102.00;;;9.40
11424;BMP180;5768;51.476;7.210;2023-12-20T04:25:16;100098.00;;;9.30
11424;BMP180;5768;51.476;7.210;2023-12-20T04:30:19;100114.00;;;9.10
11424;BMP180;5768;51.476;7.210;2023-12-20T04:35:21;100105.00;;;9.20
11424;BMP180;5768;51.476;7.210;2023-12-20T04:40:24;100110.00;;;9.20
11424;BMP180;5768;51.476;7.210;2023-12-20T04:45:27;100116.00;;;9.30
11424;BMP180;5768;51.476;7.210;2023-12-20T04:50:29;100124.00;;;9.30
11424;BMP180;5768;51.476;7.210;2023-12-20T04:55:33;100112.00;;;9.30
11424;BMP180;5768;51.476;7.210;2023-12-20T05:00:35;100107.00;;;9.30
11424;BMP180;5768;51.476;7.210;2023-12-20T05:05:37;100118.00;;;9.40
11424;BMP180;5768;51.476;7.210;2023-12-20T05:10:41;100102.00;;;9.40
11424;BMP180;5768;51.476;7.210;2023-12-20T05:15:43;100114.00;;;9.40
11424;BMP180;5768;51.476;7.210;2023-12-20T05:20:45;100106.00;;;9.30
11424;BMP180;5768;51.476;7.210;2023-12-20T05:25:49;100106.00;;;9.20
11424;BMP180;5768;51.476;7.210;2023-12-20T05:30:58;100108.00;;;9.30
11424;BMP180;5768;51.476;7.210;2023-12-20T05:36:00;100097.00;;;9.30
11424;BMP180;5768;51.476;7.210;2023-12-20T05:41:03;100093.00;;;9.30
11424;BMP180;5768;51.476;7.210;2023-12-20T05:46:06;100093.00;;;9.20
11424;BMP180;5768;51.476;7.210;2023-12-20T05:51:11;100095.00;;;9.20
11424;BMP180;5768;51.476;7.210;2023-12-20T05:56:14;100103.00;;;9.20
11424;BMP180;5768;51.476;7.210;2023-12-20T06:01:19;100107.00;;;9.30
11424;BMP180;5768;51.476;7.210;2023-12-20T06:06:21;100106.00;;;9.30
11424;BMP180;5768;51.476;7.210;2023-12-20T06:11:26;100100.00;;;9.40
11424;BMP180;5768;51.476;7.210;2023-12-20T06:16:28;100123.00;;;9.40
11424;BMP180;5768;51.476;7.210;2023-12-20T06:21:31;100102.00;;;9.40
11424;BMP180;5768;51.476;7.210;2023-12-20T06:26:35;100114.00;;;9.40
11424;BMP180;5768;51.476;7.210;2023-12-20T06:31:37;100120.00;;;9.40
11424;BMP180;5768;51.476;7.210;2023-12-20T06:36:42;100101.00;;;9.40
11424;BMP180;5768;51.476;7.210;2023-12-20T06:41:45;100107.00;;;9.40
11424;BMP180;5768;51.476;7.210;2023-12-20T06:46:48;100102.00;;;9.40
11424;BMP180;5768;51.476;7.210;2023-12-20T06:51:50;100117.00;;;9.50
11424;BMP180;5768;51.476;7.210;2023-12-20T06:56:54;100116.00;;;9.40
11424;BMP180;5768;51.476;7.210;2023-12-20T07:01:56;100099.00;;;9.40
11424;BMP180;5768;51.476;7.210;2023-12-20T07:06:58;100109.00;;;9.40
11424;BMP180;5768;51.476;7.210;2023-12-20T07:12:03;100117.00;;;9.40
11424;BMP180;5768;51.476;7.210;2023-12-20T07:17:05;100107.00;;;9.40
11424;BMP180;5768;51.476;7.210;2023-12-20T07:22:12;100106.00;;;9.40
11424;BMP180;5768;51.476;7.210;2023-12-20T07:27:16;100094.00;;;9.40
11424;BMP180;5768;51.476;7.210;2023-12-20T07:32:18;100112.00;;;9.50
11424;BMP180;5768;51.476;7.210;2023-12-20T07:37:21;100107.00;;;9.40
11424;BMP180;5768;51.476;7.210;2023-12-20T07:42:26;100124.00;;;9.50
11424;BMP180;5768;51.476;7.210;2023-12-20T07:47:28;100121.00;;;9.50
11424;BMP180;5768;51.476;7.210;2023-12-20T07:52:30;100110.00;;;9.60
11424;BMP180;5768;51.476;7.210;2023-12-20T07:57:34;100114.00;;;9.60
11424;BMP180;5768;51.476;7.210;2023-12-20T08:02:36;100111.00;;;9.60
11424;BMP180;5768;51.476;7.210;2023-12-20T08:07:39;100102.00;;;9.60
11424;BMP180;5768;51.476;7.210;2023-12-20T08:12:42;100096.00;;;9.60
11424;BMP180;5768;51.476;7.210;2023-12-20T08:17:44;100106.00;;;9.60
11424;BMP180;5768;51.476;7.210;2023-12-20T08:22:46;100108.00;;;9.70
11424;BMP180;5768;51.476;7.210;2023-12-20T08:27:50;100099.00;;;9.80
11424;BMP180;5768;51.476;7.210;2023-12-20T08:32:52;100128.00;;;9.80
11424;BMP180;5768;51.476;7.210;2023-12-20T08:37:54;100136.00;;;9.80
11424;BMP180;5768;51.476;7.210;2023-12-20T08:42:58;100131.00;;;9.90
11424;BMP180;5768;51.476;7.210;2023-12-20T08:48:00;100116.00;;;9.90
11424;BMP180;5768;51.476;7.210;2023-12-20T08:53:02;100128.00;;;9.90
11424;BMP180;5768;51.476;7.210;2023-12-20T08:58:06;100121.00;;;9.90
11424;BMP180;5768;51.476;7.210;2023-12-20T09:03:09;100111.00;;;9.90
11424;BMP180;5768;51.476;7.210;2023-12-20T09:08:11;100111.00;;;9.90
11424;BMP180;5768;51.476;7.210;2023-12-20T09:13:14;100140.00;;;9.90
11424;BMP180;5768;51.476;7.210;2023-12-20T09:18:17;100107.00;;;10.00
11424;BMP180;5768;51.476;7.210;2023-12-20T09:23:19;100088.00;;;9.90
11424;BMP180;5768;51.476;7.210;2023-12-20T09:28:23;100115.00;;;10.00
11424;BMP180;5768;51.476;7.210;2023-12-20T09:33:25;100101.00;;;10.00
11424;BMP180;5768;51.476;7.210;2023-12-20T09:38:27;100104.00;;;10.00
11424;BMP180;5768;51.476;7.210;2023-12-20T09:43:31;100105.00;;;10.10
11424;BMP180;5768;51.476;7.210;2023-12-20T09:48:36;100094.00;;;10.10
11424;BMP180;5768;51.476;7.210;2023-12-20T09:53:41;100110.00;;;10.10
11424;BMP180;5768;51.476;7.210;2023-12-20T09:58:45;100086.00;;;10.20
11424;BMP180;5768;51.476;7.210;2023-12-20T10:03:47;100099.00;;;10.30
11424;BMP180;5768;51.476;7.210;2023-12-20T10:08:50;100089.00;;;10.30
11424;BMP180;5768;51.476;7.210;2023-12-20T10:13:59;100076.00;;;10.30
11424;BMP180;5768;51.476;7.210;2023-12-20T10:19:02;100069.00;;;10.30
11424;BMP180;5768;51.476;7.210;2023-12-20T10:24:06;100052.00;;;10.40
11424;BMP180;5768;51.476;7.210;2023-12-20T10:29:10;100061.00;;;10.40
11424;BMP180;5768;51.476;7.210;2023-12-20T10:34:12;100062.00;;;10.40
11424;BMP180;5768;51.476;7.210;2023-12-20T10:39:15;100064.00;;;10.40
11424;BMP180;5768;51.476;7.210;2023-12-20T10:44:19;100045.00;;;10.40
11424;BMP180;5768;51.476;7.210;2023-12-20T10:49:22;100063.00;;;10.40
11424;BMP180;5768;51.476;7.210;2023-12-20T10:54:24;100049.00;;;10.30
11424;BMP180;5768;51.476;7.210;2023-12-20T10:59:33;100043.00;;;10.30
11424;BMP180;5768;51.476;7.210;2023-12-20T11:04:44;100059.00;;;10.40
11424;BMP180;5768;51.476;7.210;2023-12-20T11:09:58;100060.00;;;10.30
11424;BMP180;5768;51.476;7.210;2023-12-20T11:15:04;100061.00;;;10.40
11424;BMP180;5768;51.476;7.210;2023-12-20T11:20:09;100049.00;;;10.40
11424;BMP180;5768;51.476;7.210;2023-12-20T11:25:17;100048.00;;;10.40
11424;BMP180;5768;51.476;7.210;2023-12-20T11:30:21;100053.00;;;10.50
11424;BMP180;5768;51.476;7.210;2023-12-20T11:35:23;100037.00;;;10.60
11424;BMP180;5768;51.476;7.210;2023-12-20T11:40:26;100040.00;;;10.50
11424;BMP180;5768;51.476;7.210;2023-12-20T11:45:32;100037.00;;;10.60
11424;BMP180;5768;51.476;7.210;2023-12-20T11:50:35;100029.00;;;10.60
11424;BMP180;5768;51.476;7.210;2023-12-20T11:55:37;100019.00;;;10.50
11424;BMP180;5768;51.476;7.210;2023-12-20T12:00:41;100003.00;;;10.40
11424;BMP180;5768;51.476;7.210;2023-12-20T12:05:46;100017.00;;;10.40
11424;BMP180;5768;51.476;7.210;2023-12-20T12:10:49;100016.00;;;10.40
11424;BMP180;5768;51.476;7.210;2023-12-20T12:15:53;99994.00;;;10.20
11424;BMP180;5768;51.476;7.210;2023-12-20T12:21:00;99995.00;;;10.10
11424;BMP180;5768;51.476;7.210;2023-12-20T12:26:04;99980.00;;;10.00
11424;BMP180;5768;51.476;7.210;2023-12-20T12:36:12;99996.00;;;10.10
11424;BMP180;5768;51.476;7.210;2023-12-20T12:41:17;99998.00;;;10.10
11424;BMP180;5768;51.476;7.210;2023-12-20T12:46:19;99982.00;;;10.20
11424;BMP180;5768;51.476;7.210;2023-12-20T12:51:23;99977.00;;;10.10
11424;BMP180;5768;51.476;7.210;2023-12-20T12:56:26;99964.00;;;10.20
11424;BMP180;5768;51.476;7.210;2023-12-20T13:01:28;99965.00;;;10.40
11424;BMP180;5768;51.476;7.210;2023-12-20T13:06:31;99982.00;;;10.50
11424;BMP180;5768;51.476;7.210;2023-12-20T13:11:34;99959.00;;;10.60
11424;BMP180;5768;51.476;7.210;2023-12-20T13:16:36;99941.00;;;10.60
11424;BMP180;5768;51.476;7.210;2023-12-20T13:21:39;99911.00;;;10.70
11424;BMP180;5768;51.476;7.210;2023-12-20T13:26:42;99940.00;;;10.70
11424;BMP180;5768;51.476;7.210;2023-12-20T13:31:44;99934.00;;;10.60
11424;BMP180;5768;51.476;7.210;2023-12-20T13:36:47;99931.00;;;10.50
11424;BMP180;5768;51.476;7.210;2023-12-20T13:41:51;99922.00;;;10.50
11424;BMP180;5768;51.476;7.210;2023-12-20T13:46:54;99921.00;;;10.40
11424;BMP180;5768;51.476;7.210;2023-12-20T13:51:57;99923.00;;;10.30
11424;BMP180;5768;51.476;7.210;2023-12-20T13:56:59;99913.00;;;10.30
11424;BMP180;5768;51.476;7.210;2023-12-20T14:02:02;99899.00;;;10.10
11424;BMP180;5768;51.476;7.210;2023-12-20T14:07:06;99903.00;;;9.80
11424;BMP180;5768;51.476;7.210;2023-12-20T14:12:09;99892.00;;;9.80
11424;BMP180;5768;51.476;7.210;2023-12-20T14:17:11;99904.00;;;9.90
11424;BMP180;5768;51.476;7.210;2023-12-20T14:22:14;99899.00;;;9.90
11424;BMP180;5768;51.476;7.210;2023-12-20T14:27:17;99913.00;;;10.00
11424;BMP180;5768;51.476;7.210;2023-12-20T14:32:24;99893.00;;;10.00
11424;BMP180;5768;51.476;7.210;2023-12-20T14:37:28;99899.00;;;10.10
11424;BMP180;5768;51.476;7.210;2023-12-20T14:42:31;99908.00;;;10.10
11424;BMP180;5768;51.476;7.210;2023-12-20T14:47:33;99910.00;;;10.10
11424;BMP180;5768;51.476;7.210;2023-12-20T14:52:38;99911.00;;;10.20
11424;BMP180;5768;51.476;7.210;2023-12-20T14:57:40;99902.00;;;10.20
11424;BMP180;5768;51.476;7.210;2023-12-20T15:02:42;99898.00;;;10.10
11424;BMP180;5768;51.476;7.210;2023-12-20T15:07:46;99890.00;;;10.20
11424;BMP180;5768;51.476;7.210;2023-12-20T15:12:49;99886.00;;;10.20
11424;BMP180;5768;51.476;7.210;2023-12-20T15:17:51;99884.00;;;10.20
11424;BMP180;5768;51.476;7.210;2023-12-20T15:22:54;99891.00;;;10.20
11424;BMP180;5768;51.476;7.210;2023-12-20T15:27:59;99865.00;;;10.20
11424;BMP180;5768;51.476;7.210;2023-12-20T15:33:03;99862.00;;;10.20
11424;BMP180;5768;51.476;7.210;2023-12-20T15:38:07;99892.00;;;10.20
11424;BMP180;5768;51.476;7.210;2023-12-20T15:43:09;99890.00;;;10.20
11424;BMP180;5768;51.476;7.210;2023-12-20T15:48:12;99916.00;;;10.30
11424;BMP180;5768;51.476;7.210;2023-12-20T15:53:20;99888.00;;;10.30
11424;BMP180;5768;51.476;7.210;2023-12-20T15:58:22;99878.00;;;10.30
11424;BMP180;5768;51.476;7.210;2023-12-20T16:03:24;99879.00;;;10.40
11424;BMP180;5768;51.476;7.210;2023-12-20T16:08:28;99865.00;;;10.40
11424;BMP180;5768;51.476;7.210;2023-12-20T16:13:32;99856.00;;;10.40
11424;BMP180;5768;51.476;7.210;2023-12-20T16:18:34;99843.00;;;10.30
11424;BMP180;5768;51.476;7.210;2023-12-20T16:23:38;99853.00;;;10.30
11424;BMP180;5768;51.476;7.210;2023-12-20T16:28:41;99854.00;;;10.30
11424;BMP180;5768;51.476;7.210;2023-12-20T16:33:43;99856.00;;;10.30
11424;BMP180;5768;51.476;7.210;2023-12-20T16:38:46;99846.00;;;10.40
11424;BMP180;5768;51.476;7.210;2023-12-20T16:43:48;99845.00;;;10.50
11424;BMP180;5768;51.476;7.210;2023-12-20T16:48:50;99842.00;;;10.50
11424;BMP180;5768;51.476;7.210;2023-12-20T16:53:54;99839.00;;;10.50
11424;BMP180;5768;51.476;7.210;2023-12-20T16:58:56;99841.00;;;10.40
11424;BMP180;5768;51.476;7.210;2023-12-20T17:03:59;99826.00;;;10.20
11424;BMP180;5768;51.476;7.210;2023-12-20T17:09:06;99817.00;;;10.10
11424;BMP180;5768;51.476;7.210;2023-12-20T17:14:09;99803.00;;;10.10
11424;BMP180;5768;51.476;7.210;2023-12-20T17:19:12;99825.00;;;10.10
11424;BMP180;5768;51.476;7.210;2023-12-20T17:24:15;99817.00;;;10.10
11424;BMP180;5768;51.476;7.210;2023-12-20T17:29:18;99786.00;;;10.10
11424;BMP180;5768;51.476;7.210;2023-12-20T17:34:20;99789.00;;;10.00
11424;BMP180;5768;51.476;7.210;2023-12-20T17:39:24;99780.00;;;9.90
11424;BMP180;5768;51.476;7.210;2023-12-20T17:44:26;99778.00;;;9.90
11424;BMP180;5768;51.476;7.210;2023-12-20T17:49:30;99771.00;;;9.90
11424;BMP180;5768;51.476;7.210;2023-12-20T17:54:33;99757.00;;;9.90
11424;BMP180;5768;51.476;7.210;2023-12-20T17:59:35;99750.00;;;9.90
11424;BMP180;5768;51.476;7.210;2023-12-20T18:04:39;99755.00;;;10.00
11424;BMP180;5768;51.476;7.210;2023-12-20T18:09:42;99743.00;;;10.00
11424;BMP180;5768;51.476;7.210;2023-12-20T18:14:45;99744.00;;;10.00
11424;BMP180;5768;51.476;7.210;2023-12-20T18:19:49;99740.00;;;10.00
11424;BMP180;5768;51.476;7.210;2023-12-20T18:24:52;99738.00;;;10.00
11424;BMP180;5768;51.476;7.210;2023-12-20T18:29:56;99726.00;;;10.10
11424;BMP180;5768;51.476;7.210;2023-12-20T18:34:59;99715.00;;;10.20
11424;BMP180;5768;51.476;7.210;2023-12-20T18:40:05;99696.00;;;10.20
11424;BMP180;5768;51.476;7.210;2023-12-20T18:45:09;99692.00;;;10.30
11424;BMP180;5768;51.476;7.210;2023-12-20T18:50:11;99679.00;;;10.40
11424;BMP180;5768;51.476;7.210;2023-12-20T18:55:15;99687.00;;;10.40
11424;BMP180;5768;51.476;7.210;2023-12-20T19:00:20;99672.00;;;10.40
11424;BMP180;5768;51.476;7.210;2023-12-20T19:05:23;99678.00;;;10.40
11424;BMP180;5768;51.476;7.210;2023-12-20T19:10:29;99651.00;;;10.30
11424;BMP180;5768;51.476;7.210;2023-12-20T19:15:31;99668.00;;;10.30
11424;BMP180;5768;51.476;7.210;2023-12-20T19:20:33;99655.00;;;10.20
11424;BMP180;5768;51.476;7.210;2023-12-20T19:25:37;99639.00;;;10.20
11424;BMP180;5768;51.476;7.210;2023-12-20T19:30:39;99631.00;;;10.20
11424;BMP180;5768;51.476;7.210;2023-12-20T19:35:41;99642.00;;;10.20
11424;BMP180;5768;51.476;7.210;2023-12-20T19:40:45;99628.00;;;10.20
11424;BMP180;5768;51.476;7.210;2023-12-20T19:45:49;99599.00;;;10.30
11424;BMP180;5768;51.476;7.210;2023-12-20T19:50:51;99640.00;;;10.30
11424;BMP180;5768;51.476;7.210;2023-12-20T19:55:55;99603.00;;;10.40
11424;BMP180;5768;51.476;7.210;2023-12-20T20:00:57;99585.00;;;10.40
11424;BMP180;5768;51.476;7.210;2023-12-20T20:05:59;99594.00;;;10.40
11424;BMP180;5768;51.476;7.210;2023-12-20T20:11:03;99579.00;;;10.30
11424;BMP180;5768;51.476;7.210;2023-12-20T20:16:06;99590.00;;;10.30
11424;BMP180;5768;51.476;7.210;2023-12-20T20:21:08;99570.00;;;10.20
11424;BMP180;5768;51.476;7.210;2023-12-20T20:26:11;99541.00;;;10.20
11424;BMP180;5768;51.476;7.210;2023-12-20T20:31:14;99533.00;;;10.20
11424;BMP180;5768;51.476;7.210;2023-12-20T20:36:16;99525.00;;;10.20
11424;BMP180;5768;51.476;7.210;2023-12-20T20:41:20;99544.00;;;10.20
11424;BMP180;5768;51.476;7.210;2023-12-20T20:46:23;99547.00;;;10.10
11424;BMP180;5768;51.476;7.210;2023-12-20T20:51:27;99534.00;;;10.10
11424;BMP180;5768;51.476;7.210;2023-12-20T20:56:31;99523.00;;;10.10
11424;BMP180;5768;51.476;7.210;2023-12-20T21:01:33;99529.00;;;10.20
11424;BMP180;5768;51.476;7.210;2023-12-20T21:06:35;99516.00;;;10.30
11424;BMP180;5768;51.476;7.210;2023-12-20T21:11:39;99527.00;;;10.30
11424;BMP180;5768;51.476;7.210;2023-12-20T21:16:41;99518.00;;;10.30
11424;BMP180;5768;51.476;7.210;2023-12-20T21:21:44;99508.00;;;10.30
11424;BMP180;5768;51.476;7.210;2023-12-20T21:26:48;99530.00;;;10.30
11424;BMP180;5768;51.476;7.210;2023-12-20T21:31:50;99507.00;;;10.30
11424;BMP180;5768;51.476;7.210;2023-12-20T21:36:53;99483.00;;;10.30
11424;BMP180;5768;51.476;7.210;2023-12-20T21:41:57;99490.00;;;10.30
11424;BMP180;5768;51.476;7.210;2023-12-20T21:46:59;99460.00;;;10.30
11424;BMP180;5768;51.476;7.210;2023-12-20T21:52:01;99458.00;;;10.30
11424;BMP180;5768;51.476;7.210;2023-12-20T21:57:05;99453.00;;;10.40
11424;BMP180;5768;51.476;7.210;2023-12-20T22:02:07;99440.00;;;10.40
11424;BMP180;5768;51.476;7.210;2023-12-20T22:07:09;99434.00;;;10.30
11424;BMP180;5768;51.476;7.210;2023-12-20T22:12:12;99429.00;;;10.30
11424;BMP180;5768;51.476;7.210;2023-12-20T22:17:16;99440.00;;;10.30
11424;BMP180;5768;51.476;7.210;2023-12-20T22:22:18;99412.00;;;10.30
11424;BMP180;5768;51.476;7.210;2023-12-20T22:27:23;99411.00;;;10.40
11424;BMP180;5768;51.476;7.210;2023-12-20T22:32:26;99424.00;;;10.40
11424;BMP180;5768;51.476;7.210;2023-12-20T22:37:29;99438.00;;;10.40
11424;BMP180;5768;51.476;7.210;2023-12-20T22:42:33;99432.00;;;10.50
11424;BMP180;5768;51.476;7.210;2023-12-20T22:47:35;99423.00;;;10.50
11424;BMP180;5768;51.476;7.210;2023-12-20T22:52:37;99452.00;;;10.50
11424;BMP180;5768;51.476;7.210;2023-12-20T22:57:40;99442.00;;;10.50
11424;BMP180;5768;51.476;7.210;2023-12-20T23:02:43;99410.00;;;10.60
11424;BMP180;5768;51.476;7.210;2023-12-20T23:07:45;99397.00;;;10.60
11424;BMP180;5768;51.476;7.210;2023-12-20T23:12:49;99424.00;;;10.60
11424;BMP180;5768;51.476;7.210;2023-12-20T23:17:53;99386.00;;;10.60
11424;BMP180;5768;51.476;7.210;2023-12-20T23:22:57;99381.00;;;10.60
11424;BMP180;5768;51.476;7.210;2023-12-20T23:28:00;99374.00;;;10.70
11424;BMP180;5768;51.476;7.210;2023-12-20T23:33:03;99371.00;;;10.70
11424;BMP180;5768;51.476;7.210;2023-12-20T23:38:06;99347.00;;;10.70
11424;BMP180;5768;51.476;7.210;2023-12-20T23:43:10;99339.00;;;10.70
11424;BMP180;5768;51.476;7.210;2023-12-20T23:48:14;99328.00;;;10.70
11424;BMP180;5768;51.476;7.210;2023-12-20T23:53:16;99321.00;;;10.70
11424;BMP180;5768;51.476;7.210;2023-12-20T23:58:20;99305.00;;;10.70
